createdAt,value
2018-08-03T00:00:21.358Z,23.60
2018-08-03T00:00:55.322Z,23.60
2018-08-03T00:01:29.156Z,23.60
2018-08-03T00:02:03.070Z,23.60
2018-08-03T00:02:37.192Z,23.60
2018-08-03T00:03:11.000Z,23.60
2018-08-03T00:03:45.091Z,23.50
2018-08-03T00:04:19.065Z,23.50
2018-08-03T00:04:53.047Z,23.50
2018-08-03T00:05:27.052Z,23.50
2018-08-03T00:06:01.536Z,23.50
2018-08-03T00:06:35.411Z,23.50
2018-08-03T00:07:09.201Z,23.50
2018-08-03T00:07:43.051Z,23.50
2018-08-03T00:08:17.000Z,23.50
2018-08-03T00:08:51.207Z,23.50
2018-08-03T00:09:25.215Z,23.50
2018-08-03T00:09:58.892Z,23.40
2018-08-03T00:10:32.752Z,23.50
2018-08-03T00:11:07.309Z,23.50
2018-08-03T00:11:41.807Z,23.40
2018-08-03T00:12:15.738Z,23.40
2018-08-03T00:12:49.612Z,23.40
2018-08-03T00:13:23.559Z,23.40
2018-08-03T00:13:57.247Z,23.40
2018-08-03T00:14:31.248Z,23.40
2018-08-03T00:15:06.186Z,23.40
2018-08-03T00:15:39.987Z,23.40
2018-08-03T00:16:14.227Z,23.40
2018-08-03T00:16:49.283Z,23.40
2018-08-03T00:17:23.629Z,23.40
2018-08-03T00:17:57.736Z,23.40
2018-08-03T00:18:31.736Z,23.50
2018-08-03T00:19:05.624Z,23.40
2018-08-03T00:19:39.693Z,23.40
2018-08-03T00:20:13.830Z,23.40
2018-08-03T00:20:47.939Z,23.40
2018-08-03T00:21:21.571Z,23.40
2018-08-03T00:21:55.520Z,23.40
2018-08-03T00:22:29.387Z,23.40
2018-08-03T00:23:03.296Z,23.30
2018-08-03T00:23:37.312Z,23.30
2018-08-03T00:24:11.268Z,23.40
2018-08-03T00:24:45.088Z,23.30
2018-08-03T00:25:19.131Z,23.30
2018-08-03T00:25:53.163Z,23.30
2018-08-03T00:26:27.172Z,23.30
2018-08-03T00:27:01.046Z,23.30
2018-08-03T00:27:35.259Z,23.30
2018-08-03T00:28:09.009Z,23.30
2018-08-03T00:28:42.859Z,23.30
2018-08-03T00:29:16.562Z,23.30
2018-08-03T00:29:50.460Z,23.30
2018-08-03T00:30:24.231Z,23.30
2018-08-03T00:30:58.215Z,23.30
2018-08-03T00:31:31.847Z,23.30
2018-08-03T00:32:05.528Z,23.20
2018-08-03T00:32:39.463Z,23.20
2018-08-03T00:33:13.594Z,23.20
2018-08-03T00:33:47.438Z,23.20
2018-08-03T00:34:21.217Z,23.20
2018-08-03T00:34:54.795Z,23.20
2018-08-03T00:35:28.515Z,23.20
2018-08-03T00:36:02.375Z,23.20
2018-08-03T00:36:36.112Z,23.20
2018-08-03T00:37:09.714Z,23.20
2018-08-03T00:37:43.452Z,23.20
2018-08-03T00:38:17.306Z,23.20
2018-08-03T00:38:51.195Z,23.20
2018-08-03T00:39:25.188Z,23.20
2018-08-03T00:40:00.236Z,23.20
2018-08-03T00:40:34.044Z,23.10
2018-08-03T00:41:08.023Z,23.10
2018-08-03T00:41:41.797Z,23.10
2018-08-03T00:42:15.661Z,23.10
2018-08-03T00:42:49.765Z,23.10
2018-08-03T00:43:23.659Z,23.10
2018-08-03T00:43:58.002Z,23.10
2018-08-03T00:44:32.160Z,23.10
2018-08-03T00:45:06.208Z,23.10
2018-08-03T00:45:39.958Z,23.10
2018-08-03T00:46:13.919Z,23.00
2018-08-03T00:46:47.919Z,23.00
2018-08-03T00:47:21.629Z,23.00
2018-08-03T00:47:55.406Z,23.00
2018-08-03T00:48:29.244Z,23.00
2018-08-03T00:49:03.265Z,23.00
2018-08-03T00:49:37.132Z,23.00
2018-08-03T00:50:11.136Z,23.00
2018-08-03T00:50:45.002Z,23.00
2018-08-03T00:51:18.900Z,23.00
2018-08-03T00:51:52.824Z,23.00
2018-08-03T00:52:26.639Z,22.90
2018-08-03T00:53:00.383Z,22.90
2018-08-03T00:53:34.333Z,22.90
2018-08-03T00:54:08.156Z,23.00
2018-08-03T00:54:41.883Z,23.00
2018-08-03T00:55:16.204Z,23.00
2018-08-03T00:55:50.088Z,23.00
2018-08-03T00:56:23.803Z,23.00
2018-08-03T00:56:57.779Z,23.00
2018-08-03T00:57:31.753Z,22.90
2018-08-03T00:58:05.432Z,22.90
2018-08-03T00:58:39.355Z,22.90
2018-08-03T00:59:13.203Z,22.90
2018-08-03T00:59:47.056Z,22.90
2018-08-03T01:00:21.243Z,22.90
2018-08-03T01:00:55.159Z,22.90
2018-08-03T01:01:28.975Z,22.90
2018-08-03T01:02:02.840Z,22.90
2018-08-03T01:02:36.575Z,22.90
2018-08-03T01:03:10.519Z,22.90
2018-08-03T01:03:44.379Z,22.90
2018-08-03T01:04:18.215Z,22.90
2018-08-03T01:04:52.192Z,22.90
2018-08-03T01:05:25.907Z,22.80
2018-08-03T01:05:59.696Z,22.80
2018-08-03T01:06:33.599Z,22.90
2018-08-03T01:07:07.483Z,22.80
2018-08-03T01:07:41.267Z,22.80
2018-08-03T01:08:14.996Z,22.80
2018-08-03T01:08:48.855Z,22.80
2018-08-03T01:09:22.826Z,22.80
2018-08-03T01:09:56.746Z,22.80
2018-08-03T01:10:30.586Z,22.80
2018-08-03T01:11:04.331Z,22.90
2018-08-03T01:11:38.024Z,22.80
2018-08-03T01:12:11.935Z,22.80
2018-08-03T01:12:47.119Z,22.90
2018-08-03T01:13:21.143Z,22.90
2018-08-03T01:13:54.895Z,22.90
2018-08-03T01:14:29.061Z,22.90
2018-08-03T01:15:02.812Z,22.90
2018-08-03T01:15:36.698Z,22.90
2018-08-03T01:16:10.296Z,22.80
2018-08-03T01:16:44.004Z,22.80
2018-08-03T01:17:17.908Z,22.80
2018-08-03T01:17:52.055Z,22.80
2018-08-03T01:18:26.002Z,22.80
2018-08-03T01:18:59.729Z,22.80
2018-08-03T01:19:33.548Z,22.80
2018-08-03T01:20:07.439Z,22.80
2018-08-03T01:20:41.348Z,22.80
2018-08-03T01:21:15.160Z,22.80
2018-08-03T01:21:49.119Z,22.80
2018-08-03T01:22:22.903Z,22.70
2018-08-03T01:22:56.811Z,22.70
2018-08-03T01:23:30.845Z,22.70
2018-08-03T01:24:04.782Z,22.80
2018-08-03T01:24:38.592Z,22.80
2018-08-03T01:25:12.496Z,22.70
2018-08-03T01:25:46.067Z,22.70
2018-08-03T01:26:19.744Z,22.70
2018-08-03T01:26:53.653Z,22.70
2018-08-03T01:27:27.554Z,22.70
2018-08-03T01:28:01.339Z,22.70
2018-08-03T01:28:35.048Z,22.70
2018-08-03T01:29:09.085Z,22.70
2018-08-03T01:29:42.763Z,22.60
2018-08-03T01:30:16.497Z,22.60
2018-08-03T01:30:50.398Z,22.60
2018-08-03T01:31:24.292Z,22.60
2018-08-03T01:31:58.067Z,22.60
2018-08-03T01:32:32.003Z,22.60
2018-08-03T01:33:05.622Z,22.60
2018-08-03T01:33:39.456Z,22.60
2018-08-03T01:34:13.222Z,22.60
2018-08-03T01:34:47.048Z,22.60
2018-08-03T01:35:20.912Z,22.60
2018-08-03T01:35:54.747Z,22.50
2018-08-03T01:36:28.728Z,22.50
2018-08-03T01:37:02.416Z,22.50
2018-08-03T01:37:36.367Z,22.50
2018-08-03T01:38:10.227Z,22.50
2018-08-03T01:38:44.021Z,22.50
2018-08-03T01:39:17.868Z,22.50
2018-08-03T01:39:51.803Z,22.50
2018-08-03T01:40:25.477Z,22.50
2018-08-03T01:40:59.380Z,22.50
2018-08-03T01:41:33.075Z,22.50
2018-08-03T01:42:06.958Z,22.50
2018-08-03T01:42:40.946Z,22.50
2018-08-03T01:43:14.660Z,22.50
2018-08-03T01:43:48.548Z,22.50
2018-08-03T01:44:22.344Z,22.50
2018-08-03T01:44:56.283Z,22.50
2018-08-03T01:45:30.259Z,22.50
2018-08-03T01:46:04.043Z,22.40
2018-08-03T01:46:37.949Z,22.40
2018-08-03T01:47:11.956Z,22.40
2018-08-03T01:47:45.680Z,22.40
2018-08-03T01:48:19.454Z,22.40
2018-08-03T01:48:53.605Z,22.40
2018-08-03T01:49:27.541Z,22.40
2018-08-03T01:50:01.488Z,22.40
2018-08-03T01:50:35.553Z,22.40
2018-08-03T01:51:09.596Z,22.40
2018-08-03T01:51:43.524Z,22.40
2018-08-03T01:52:17.615Z,22.40
2018-08-03T01:52:51.563Z,22.40
2018-08-03T01:53:25.896Z,22.40
2018-08-03T01:54:00.000Z,22.40
2018-08-03T01:54:34.208Z,22.30
2018-08-03T01:55:08.075Z,22.30
2018-08-03T01:55:41.944Z,22.30
2018-08-03T01:56:15.728Z,22.30
2018-08-03T01:56:49.504Z,22.30
2018-08-03T01:57:23.535Z,22.30
2018-08-03T01:57:57.349Z,22.30
2018-08-03T01:58:31.260Z,22.30
2018-08-03T01:59:05.149Z,22.30
2018-08-03T01:59:38.855Z,22.30
2018-08-03T02:00:12.692Z,22.30
2018-08-03T02:00:46.483Z,22.30
2018-08-03T02:01:20.319Z,22.20
2018-08-03T02:01:54.216Z,22.20
2018-08-03T02:02:28.096Z,22.30
2018-08-03T02:03:02.120Z,22.30
2018-08-03T02:03:35.856Z,22.30
2018-08-03T02:04:09.650Z,22.30
2018-08-03T02:04:43.372Z,22.20
2018-08-03T02:05:17.209Z,22.20
2018-08-03T02:05:51.050Z,22.20
2018-08-03T02:06:27.243Z,22.20
2018-08-03T02:07:01.219Z,22.20
2018-08-03T02:07:35.007Z,22.20
2018-08-03T02:08:08.768Z,22.20
2018-08-03T02:08:42.675Z,22.20
2018-08-03T02:09:16.578Z,22.20
2018-08-03T02:09:50.360Z,22.20
2018-08-03T02:10:24.024Z,22.20
2018-08-03T02:10:57.840Z,22.10
2018-08-03T02:11:31.658Z,22.10
2018-08-03T02:12:05.431Z,22.10
2018-08-03T02:12:39.296Z,22.10
2018-08-03T02:13:13.215Z,22.10
2018-08-03T02:13:47.063Z,22.00
2018-08-03T02:14:20.853Z,22.00
2018-08-03T02:14:54.510Z,22.00
2018-08-03T02:15:28.398Z,22.00
2018-08-03T02:16:02.240Z,22.00
2018-08-03T02:16:36.000Z,22.10
2018-08-03T02:17:09.732Z,22.00
2018-08-03T02:17:43.455Z,22.00
2018-08-03T02:18:17.315Z,22.00
2018-08-03T02:18:51.060Z,22.00
2018-08-03T02:19:24.715Z,22.00
2018-08-03T02:19:58.668Z,22.00
2018-08-03T02:20:32.644Z,21.90
2018-08-03T02:21:06.620Z,21.90
2018-08-03T02:21:40.310Z,21.90
2018-08-03T02:22:14.084Z,21.90
2018-08-03T02:22:48.691Z,21.90
2018-08-03T02:23:22.412Z,21.90
2018-08-03T02:23:56.337Z,21.80
2018-08-03T02:24:30.276Z,21.80
2018-08-03T02:25:04.619Z,21.80
2018-08-03T02:25:38.402Z,21.80
2018-08-03T02:26:12.352Z,21.80
2018-08-03T02:26:46.101Z,21.80
2018-08-03T02:27:19.847Z,21.80
2018-08-03T02:27:53.850Z,21.80
2018-08-03T02:28:27.591Z,21.80
2018-08-03T02:29:01.467Z,21.90
2018-08-03T02:29:35.111Z,21.90
2018-08-03T02:30:08.837Z,21.80
2018-08-03T02:30:42.591Z,21.80
2018-08-03T02:31:16.427Z,21.80
2018-08-03T02:31:50.167Z,21.80
2018-08-03T02:32:23.979Z,21.80
2018-08-03T02:32:57.730Z,21.80
2018-08-03T02:33:32.852Z,21.80
2018-08-03T02:34:07.691Z,21.80
2018-08-03T02:34:41.681Z,21.80
2018-08-03T02:35:15.532Z,21.80
2018-08-03T02:35:49.418Z,21.80
2018-08-03T02:36:23.304Z,21.80
2018-08-03T02:36:57.168Z,21.80
2018-08-03T02:37:30.938Z,21.80
2018-08-03T02:38:05.135Z,21.80
2018-08-03T02:38:39.631Z,21.70
2018-08-03T02:39:13.499Z,21.70
2018-08-03T02:39:47.378Z,21.70
2018-08-03T02:40:21.312Z,21.70
2018-08-03T02:40:55.231Z,21.60
2018-08-03T02:41:28.877Z,21.60
2018-08-03T02:42:02.684Z,21.60
2018-08-03T02:42:36.596Z,21.60
2018-08-03T02:43:10.702Z,21.70
2018-08-03T02:43:44.522Z,21.70
2018-08-03T02:44:18.335Z,21.70
2018-08-03T02:44:52.281Z,21.60
2018-08-03T02:45:25.968Z,21.60
2018-08-03T02:45:59.692Z,21.60
2018-08-03T02:46:33.511Z,21.60
2018-08-03T02:47:07.432Z,21.70
2018-08-03T02:47:41.317Z,21.60
2018-08-03T02:48:15.067Z,21.60
2018-08-03T02:48:48.879Z,21.60
2018-08-03T02:49:22.749Z,21.60
2018-08-03T02:49:56.707Z,21.60
2018-08-03T02:50:30.570Z,21.50
2018-08-03T02:51:04.569Z,21.50
2018-08-03T02:51:38.506Z,21.50
2018-08-03T02:52:12.432Z,21.60
2018-08-03T02:52:46.104Z,21.60
2018-08-03T02:53:19.796Z,21.60
2018-08-03T02:53:53.655Z,21.50
2018-08-03T02:54:27.892Z,21.50
2018-08-03T02:55:01.692Z,21.50
2018-08-03T02:55:35.500Z,21.50
2018-08-03T02:56:09.657Z,21.40
2018-08-03T02:56:43.614Z,21.40
2018-08-03T02:57:17.466Z,21.40
2018-08-03T02:57:51.228Z,21.40
2018-08-03T02:58:24.903Z,21.40
2018-08-03T02:58:58.657Z,21.30
2018-08-03T02:59:32.479Z,21.30
2018-08-03T03:00:06.230Z,21.40
2018-08-03T03:00:39.997Z,21.30
2018-08-03T03:01:13.815Z,21.30
2018-08-03T03:01:47.690Z,21.30
2018-08-03T03:02:21.617Z,21.40
2018-08-03T03:02:55.187Z,21.40
2018-08-03T03:03:28.869Z,21.40
2018-08-03T03:04:02.824Z,21.40
2018-08-03T03:04:36.715Z,21.40
2018-08-03T03:05:10.725Z,21.40
2018-08-03T03:05:44.507Z,21.30
2018-08-03T03:06:18.164Z,21.30
2018-08-03T03:06:52.147Z,21.30
2018-08-03T03:07:26.004Z,21.30
2018-08-03T03:07:59.847Z,21.30
2018-08-03T03:08:33.854Z,21.30
2018-08-03T03:09:09.915Z,21.30
2018-08-03T03:09:44.032Z,21.30
2018-08-03T03:10:17.897Z,21.30
2018-08-03T03:10:52.191Z,21.20
2018-08-03T03:11:25.964Z,21.20
2018-08-03T03:11:59.921Z,21.20
2018-08-03T03:12:33.910Z,21.10
2018-08-03T03:13:07.707Z,21.20
2018-08-03T03:13:41.623Z,21.10
2018-08-03T03:14:15.633Z,21.10
2018-08-03T03:14:49.359Z,21.10
2018-08-03T03:15:23.334Z,21.10
2018-08-03T03:15:57.219Z,21.10
2018-08-03T03:16:31.022Z,21.10
2018-08-03T03:17:05.007Z,21.10
2018-08-03T03:17:39.056Z,21.10
2018-08-03T03:18:13.080Z,21.10
2018-08-03T03:18:46.830Z,21.10
2018-08-03T03:19:20.588Z,21.10
2018-08-03T03:19:54.275Z,21.10
2018-08-03T03:20:28.908Z,21.00
2018-08-03T03:21:02.667Z,21.00
2018-08-03T03:21:36.737Z,21.00
2018-08-03T03:22:10.969Z,20.90
2018-08-03T03:22:45.137Z,20.90
2018-08-03T03:23:18.988Z,21.00
2018-08-03T03:23:52.669Z,20.90
2018-08-03T03:24:26.680Z,20.90
2018-08-03T03:25:00.763Z,20.90
2018-08-03T03:25:34.633Z,20.90
2018-08-03T03:26:08.300Z,20.90
2018-08-03T03:26:42.868Z,20.90
2018-08-03T03:27:16.804Z,20.90
2018-08-03T03:27:50.369Z,20.90
2018-08-03T03:28:24.251Z,20.80
2018-08-03T03:28:58.101Z,20.90
2018-08-03T03:29:31.951Z,20.80
2018-08-03T03:30:07.099Z,20.80
2018-08-03T03:30:40.891Z,20.80
2018-08-03T03:31:14.561Z,20.80
2018-08-03T03:31:48.452Z,20.80
2018-08-03T03:32:22.245Z,20.80
2018-08-03T03:32:55.999Z,20.80
2018-08-03T03:33:30.060Z,20.80
2018-08-03T03:34:03.940Z,20.80
2018-08-03T03:34:38.637Z,20.80
2018-08-03T03:35:12.456Z,20.80
2018-08-03T03:35:46.331Z,20.80
2018-08-03T03:36:20.119Z,20.80
2018-08-03T03:36:53.934Z,20.80
2018-08-03T03:37:27.723Z,20.80
2018-08-03T03:38:01.703Z,20.90
2018-08-03T03:38:35.740Z,20.90
2018-08-03T03:39:11.822Z,20.90
2018-08-03T03:39:45.712Z,20.90
2018-08-03T03:40:19.538Z,20.90
2018-08-03T03:40:53.320Z,20.90
2018-08-03T03:41:27.298Z,20.90
2018-08-03T03:42:01.387Z,20.90
2018-08-03T03:42:35.150Z,20.90
2018-08-03T03:43:08.843Z,20.90
2018-08-03T03:43:43.438Z,20.80
2018-08-03T03:44:17.311Z,20.90
2018-08-03T03:44:51.035Z,20.90
2018-08-03T03:45:24.873Z,20.90
2018-08-03T03:45:58.464Z,20.90
2018-08-03T03:46:32.107Z,20.90
2018-08-03T03:47:05.859Z,20.90
2018-08-03T03:47:39.649Z,20.90
2018-08-03T03:48:13.476Z,20.90
2018-08-03T03:48:47.372Z,20.90
2018-08-03T03:49:21.139Z,20.90
2018-08-03T03:49:54.827Z,20.90
2018-08-03T03:50:28.690Z,21.00
2018-08-03T03:51:02.542Z,21.00
2018-08-03T03:51:36.331Z,20.90
2018-08-03T03:52:10.260Z,20.90
2018-08-03T03:52:45.012Z,20.90
2018-08-03T03:53:18.734Z,20.90
2018-08-03T03:53:52.793Z,20.80
2018-08-03T03:54:26.607Z,20.80
2018-08-03T03:55:00.383Z,20.80
2018-08-03T03:55:34.259Z,20.80
2018-08-03T03:56:08.084Z,20.80
2018-08-03T03:56:41.940Z,20.80
2018-08-03T03:57:15.840Z,20.80
2018-08-03T03:57:50.735Z,20.90
2018-08-03T03:58:24.620Z,20.90
2018-08-03T03:58:58.479Z,20.90
2018-08-03T03:59:32.180Z,20.90
2018-08-03T04:00:07.084Z,20.80
2018-08-03T04:00:40.882Z,20.80
2018-08-03T04:01:14.516Z,20.80
2018-08-03T04:01:48.352Z,20.70
2018-08-03T04:02:22.256Z,20.70
2018-08-03T04:02:56.330Z,20.70
2018-08-03T04:03:30.152Z,20.70
2018-08-03T04:04:04.144Z,20.70
2018-08-03T04:04:38.044Z,20.70
2018-08-03T04:05:12.043Z,20.60
2018-08-03T04:05:45.900Z,20.60
2018-08-03T04:06:19.641Z,20.60
2018-08-03T04:06:53.569Z,20.60
2018-08-03T04:07:27.358Z,20.60
2018-08-03T04:08:01.208Z,20.60
2018-08-03T04:08:34.897Z,20.60
2018-08-03T04:09:11.142Z,20.60
2018-08-03T04:09:44.750Z,20.60
2018-08-03T04:10:18.776Z,20.60
2018-08-03T04:10:52.612Z,20.60
2018-08-03T04:11:26.220Z,20.60
2018-08-03T04:12:00.109Z,20.70
2018-08-03T04:12:33.996Z,20.60
2018-08-03T04:13:07.663Z,20.60
2018-08-03T04:13:41.372Z,20.60
2018-08-03T04:14:15.212Z,20.60
2018-08-03T04:14:49.210Z,20.60
2018-08-03T04:15:22.878Z,20.60
2018-08-03T04:15:56.515Z,20.60
2018-08-03T04:16:30.251Z,20.60
2018-08-03T04:17:04.097Z,20.60
2018-08-03T04:17:37.937Z,20.60
2018-08-03T04:18:26.682Z,20.60
2018-08-03T04:19:00.520Z,20.60
2018-08-03T04:19:34.325Z,20.60
2018-08-03T04:20:08.012Z,20.60
2018-08-03T04:20:41.935Z,20.60
2018-08-03T04:21:15.756Z,20.60
2018-08-03T04:21:49.717Z,20.60
2018-08-03T04:22:23.752Z,20.70
2018-08-03T04:22:57.647Z,20.70
2018-08-03T04:23:31.515Z,20.70
2018-08-03T04:24:05.425Z,20.60
2018-08-03T04:24:39.285Z,20.70
2018-08-03T04:25:13.138Z,20.70
2018-08-03T04:25:47.092Z,20.60
2018-08-03T04:26:20.987Z,20.60
2018-08-03T04:26:54.926Z,20.60
2018-08-03T04:27:28.611Z,20.60
2018-08-03T04:28:02.467Z,20.60
2018-08-03T04:28:36.267Z,20.60
2018-08-03T04:29:10.318Z,20.60
2018-08-03T04:29:44.227Z,20.60
2018-08-03T04:30:18.266Z,20.60
2018-08-03T04:30:51.984Z,20.70
2018-08-03T04:31:25.910Z,20.70
2018-08-03T04:31:59.699Z,20.70
2018-08-03T04:32:33.748Z,20.80
2018-08-03T04:33:07.484Z,20.80
2018-08-03T04:33:41.333Z,20.80
2018-08-03T04:34:15.155Z,20.80
2018-08-03T04:34:48.937Z,20.80
2018-08-03T04:35:22.835Z,20.80
2018-08-03T04:35:56.651Z,20.80
2018-08-03T04:36:30.358Z,20.80
2018-08-03T04:37:04.328Z,20.80
2018-08-03T04:37:38.127Z,20.80
2018-08-03T04:38:12.164Z,20.80
2018-08-03T04:38:46.143Z,20.80
2018-08-03T04:39:19.847Z,20.80
2018-08-03T04:39:53.947Z,20.80
2018-08-03T04:40:27.944Z,20.80
2018-08-03T04:41:01.735Z,20.80
2018-08-03T04:41:35.516Z,20.80
2018-08-03T04:42:09.294Z,20.80
2018-08-03T04:42:43.298Z,20.80
2018-08-03T04:43:17.201Z,20.90
2018-08-03T04:43:51.056Z,20.80
2018-08-03T04:44:25.021Z,20.80
2018-08-03T04:44:59.396Z,20.80
2018-08-03T04:45:33.064Z,20.90
2018-08-03T04:46:07.040Z,20.90
2018-08-03T04:46:40.762Z,20.90
2018-08-03T04:47:14.404Z,20.90
2018-08-03T04:47:48.363Z,21.00
2018-08-03T04:48:22.246Z,21.00
2018-08-03T04:48:56.257Z,21.00
2018-08-03T04:49:30.064Z,21.00
2018-08-03T04:50:04.259Z,21.00
2018-08-03T04:50:37.965Z,21.00
2018-08-03T04:51:12.020Z,21.00
2018-08-03T04:51:45.871Z,21.00
2018-08-03T04:52:20.538Z,21.00
2018-08-03T04:52:54.453Z,21.10
2018-08-03T04:53:28.321Z,21.10
2018-08-03T04:54:02.092Z,21.10
2018-08-03T04:54:35.806Z,21.10
2018-08-03T04:55:09.711Z,21.10
2018-08-03T04:55:43.451Z,21.10
2018-08-03T04:56:17.396Z,21.10
2018-08-03T04:56:51.581Z,21.10
2018-08-03T04:57:25.452Z,21.10
2018-08-03T04:57:59.498Z,21.20
2018-08-03T04:58:33.354Z,21.20
2018-08-03T04:59:07.460Z,21.20
2018-08-03T04:59:41.392Z,21.20
2018-08-03T05:00:15.188Z,21.20
2018-08-03T05:00:49.276Z,21.20
2018-08-03T05:01:23.556Z,21.20
2018-08-03T05:01:57.288Z,21.30
2018-08-03T05:02:31.172Z,21.30
2018-08-03T05:03:05.007Z,21.30
2018-08-03T05:03:38.860Z,21.30
2018-08-03T05:04:12.586Z,21.30
2018-08-03T05:04:46.471Z,21.30
2018-08-03T05:05:20.406Z,21.30
2018-08-03T05:05:54.295Z,21.30
2018-08-03T05:06:28.199Z,21.40
2018-08-03T05:07:02.136Z,21.40
2018-08-03T05:07:35.999Z,21.40
2018-08-03T05:08:09.602Z,21.50
2018-08-03T05:08:43.343Z,21.50
2018-08-03T05:09:17.260Z,21.50
2018-08-03T05:09:51.125Z,21.50
2018-08-03T05:10:24.762Z,21.50
2018-08-03T05:10:58.781Z,21.50
2018-08-03T05:11:32.547Z,21.50
2018-08-03T05:12:06.129Z,21.50
2018-08-03T05:12:39.898Z,21.50
2018-08-03T05:13:14.145Z,21.50
2018-08-03T05:13:48.108Z,21.50
2018-08-03T05:14:21.865Z,21.60
2018-08-03T05:14:55.687Z,21.60
2018-08-03T05:15:29.636Z,21.60
2018-08-03T05:16:03.592Z,21.60
2018-08-03T05:16:37.271Z,21.60
2018-08-03T05:17:11.079Z,21.60
2018-08-03T05:17:44.833Z,21.70
2018-08-03T05:18:18.576Z,21.70
2018-08-03T05:18:52.334Z,21.70
2018-08-03T05:19:26.159Z,21.70
2018-08-03T05:20:00.118Z,21.70
2018-08-03T05:20:34.074Z,21.80
2018-08-03T05:21:07.907Z,21.70
2018-08-03T05:21:41.586Z,21.80
2018-08-03T05:22:15.813Z,21.80
2018-08-03T05:22:49.760Z,21.90
2018-08-03T05:23:23.576Z,21.90
2018-08-03T05:23:57.423Z,22.00
2018-08-03T05:24:31.647Z,22.00
2018-08-03T05:25:06.024Z,22.00
2018-08-03T05:25:39.982Z,22.10
2018-08-03T05:26:13.711Z,22.10
2018-08-03T05:26:47.698Z,22.10
2018-08-03T05:27:21.418Z,22.10
2018-08-03T05:27:55.223Z,22.20
2018-08-03T05:28:29.064Z,22.10
2018-08-03T05:29:02.903Z,22.10
2018-08-03T05:29:36.779Z,22.20
2018-08-03T05:30:10.750Z,22.20
2018-08-03T05:30:44.536Z,22.20
2018-08-03T05:31:18.675Z,22.30
2018-08-03T05:31:52.538Z,22.30
2018-08-03T05:32:26.229Z,22.30
2018-08-03T05:33:00.203Z,22.30
2018-08-03T05:33:34.116Z,22.30
2018-08-03T05:34:08.323Z,22.40
2018-08-03T05:34:42.160Z,22.40
2018-08-03T05:35:15.898Z,22.50
2018-08-03T05:35:49.591Z,22.50
2018-08-03T05:36:23.354Z,22.50
2018-08-03T05:36:57.254Z,22.50
2018-08-03T05:37:31.497Z,22.50
2018-08-03T05:38:05.495Z,22.50
2018-08-03T05:38:39.252Z,22.60
2018-08-03T05:39:13.240Z,22.60
2018-08-03T05:39:47.005Z,22.60
2018-08-03T05:40:20.863Z,22.70
2018-08-03T05:40:54.538Z,22.60
2018-08-03T05:41:28.481Z,22.60
2018-08-03T05:42:02.519Z,22.80
2018-08-03T05:42:36.409Z,22.90
2018-08-03T05:43:10.094Z,22.90
2018-08-03T05:43:44.026Z,22.90
2018-08-03T05:44:17.875Z,22.80
2018-08-03T05:44:51.815Z,22.90
2018-08-03T05:45:25.602Z,22.80
2018-08-03T05:45:59.412Z,22.90
2018-08-03T05:46:33.121Z,22.80
2018-08-03T05:47:07.371Z,22.90
2018-08-03T05:47:41.066Z,22.80
2018-08-03T05:48:15.193Z,22.90
2018-08-03T05:48:48.902Z,22.90
2018-08-03T05:49:22.817Z,23.00
2018-08-03T05:49:56.629Z,23.10
2018-08-03T05:50:30.453Z,23.20
2018-08-03T05:51:04.419Z,23.10
2018-08-03T05:51:38.437Z,23.10
2018-08-03T05:52:12.282Z,23.10
2018-08-03T05:52:46.041Z,23.20
2018-08-03T05:53:20.020Z,23.30
2018-08-03T05:53:54.036Z,23.40
2018-08-03T05:54:27.689Z,23.50
2018-08-03T05:55:01.488Z,23.50
2018-08-03T05:55:35.179Z,23.40
2018-08-03T05:56:09.071Z,23.40
2018-08-03T05:56:43.032Z,23.40
2018-08-03T05:57:17.041Z,23.50
2018-08-03T05:57:51.038Z,23.60
2018-08-03T05:58:24.886Z,23.60
2018-08-03T05:58:58.793Z,23.60
2018-08-03T05:59:32.493Z,23.60
2018-08-03T06:00:06.617Z,23.50
2018-08-03T06:00:40.660Z,23.60
2018-08-03T06:01:14.456Z,23.70
2018-08-03T06:01:48.503Z,23.70
2018-08-03T06:02:22.453Z,23.80
2018-08-03T06:02:56.310Z,23.80
2018-08-03T06:03:30.219Z,23.80
2018-08-03T06:04:04.061Z,23.80
2018-08-03T06:04:37.864Z,23.80
2018-08-03T06:05:11.716Z,23.70
2018-08-03T06:05:45.904Z,23.70
2018-08-03T06:06:19.688Z,23.70
2018-08-03T06:06:53.571Z,23.70
2018-08-03T06:07:27.487Z,23.80
2018-08-03T06:08:01.387Z,23.80
2018-08-03T06:08:35.267Z,23.90
2018-08-03T06:09:10.428Z,23.90
2018-08-03T06:09:44.192Z,23.80
2018-08-03T06:10:17.891Z,23.90
2018-08-03T06:10:51.719Z,23.90
2018-08-03T06:11:25.315Z,24.00
2018-08-03T06:11:59.035Z,24.00
2018-08-03T06:12:32.948Z,24.10
2018-08-03T06:13:06.964Z,24.10
2018-08-03T06:13:40.964Z,24.20
2018-08-03T06:14:14.848Z,24.20
2018-08-03T06:14:49.036Z,24.00
2018-08-03T06:15:22.699Z,24.00
2018-08-03T06:15:56.478Z,23.90
2018-08-03T06:16:30.382Z,23.90
2018-08-03T06:17:04.292Z,24.00
2018-08-03T06:17:38.734Z,24.00
2018-08-03T06:18:12.456Z,24.00
2018-08-03T06:18:46.601Z,24.00
2018-08-03T06:19:20.463Z,24.20
2018-08-03T06:19:54.147Z,24.30
2018-08-03T06:20:27.979Z,24.30
2018-08-03T06:21:01.815Z,24.40
2018-08-03T06:21:35.963Z,24.40
2018-08-03T06:22:09.769Z,24.40
2018-08-03T06:22:43.892Z,24.30
2018-08-03T06:23:18.089Z,24.30
2018-08-03T06:23:52.060Z,24.30
2018-08-03T06:24:25.871Z,24.30
2018-08-03T06:24:59.579Z,24.40
2018-08-03T06:25:33.481Z,24.40
2018-08-03T06:26:07.199Z,24.40
2018-08-03T06:26:41.344Z,24.30
2018-08-03T06:27:15.049Z,24.30
2018-08-03T06:27:48.839Z,24.40
2018-08-03T06:28:22.484Z,24.40
2018-08-03T06:28:56.179Z,24.40
2018-08-03T06:29:30.525Z,24.40
2018-08-03T06:30:05.531Z,24.30
2018-08-03T06:30:39.304Z,24.30
2018-08-03T06:31:13.113Z,24.30
2018-08-03T06:31:46.895Z,24.30
2018-08-03T06:32:20.603Z,24.40
2018-08-03T06:32:54.343Z,24.40
2018-08-03T06:33:28.080Z,24.40
2018-08-03T06:34:01.951Z,24.40
2018-08-03T06:34:35.788Z,24.50
2018-08-03T06:35:09.966Z,24.50
2018-08-03T06:35:44.494Z,24.60
2018-08-03T06:36:18.683Z,24.50
2018-08-03T06:36:52.758Z,24.60
2018-08-03T06:37:26.528Z,24.60
2018-08-03T06:38:00.108Z,24.60
2018-08-03T06:38:33.846Z,24.60
2018-08-03T06:39:08.852Z,24.70
2018-08-03T06:39:42.575Z,24.60
2018-08-03T06:40:17.840Z,24.70
2018-08-03T06:40:51.655Z,24.70
2018-08-03T06:41:25.467Z,24.70
2018-08-03T06:41:59.344Z,24.70
2018-08-03T06:42:33.371Z,24.70
2018-08-03T06:43:07.348Z,24.80
2018-08-03T06:43:41.141Z,24.80
2018-08-03T06:44:14.872Z,24.80
2018-08-03T06:44:48.718Z,24.80
2018-08-03T06:45:22.380Z,24.80
2018-08-03T06:45:56.303Z,24.80
2018-08-03T06:46:29.963Z,24.90
2018-08-03T06:47:03.704Z,24.90
2018-08-03T06:47:37.491Z,24.90
2018-08-03T06:48:11.288Z,24.90
2018-08-03T06:48:45.094Z,24.90
2018-08-03T06:49:19.013Z,24.90
2018-08-03T06:49:52.956Z,24.90
2018-08-03T06:50:26.676Z,24.90
2018-08-03T06:51:00.635Z,24.90
2018-08-03T06:51:34.255Z,25.00
2018-08-03T06:52:08.024Z,25.00
2018-08-03T06:52:42.023Z,25.00
2018-08-03T06:53:15.817Z,25.10
2018-08-03T06:53:49.673Z,25.10
2018-08-03T06:54:23.469Z,25.20
2018-08-03T06:54:57.480Z,25.20
2018-08-03T06:55:31.568Z,25.20
2018-08-03T06:56:05.469Z,25.20
2018-08-03T06:56:39.243Z,25.30
2018-08-03T06:57:13.067Z,25.30
2018-08-03T06:57:47.095Z,25.30
2018-08-03T06:58:20.951Z,25.40
2018-08-03T06:58:54.598Z,25.40
2018-08-03T06:59:28.453Z,25.40
2018-08-03T07:00:02.550Z,25.50
2018-08-03T07:00:36.140Z,25.50
2018-08-03T07:01:09.915Z,25.50
2018-08-03T07:01:44.507Z,25.60
2018-08-03T07:02:18.613Z,25.60
2018-08-03T07:02:52.558Z,25.70
2018-08-03T07:03:26.371Z,25.70
2018-08-03T07:04:00.328Z,25.80
2018-08-03T07:04:34.200Z,25.90
2018-08-03T07:05:08.084Z,25.90
2018-08-03T07:05:42.113Z,25.90
2018-08-03T07:06:16.297Z,26.00
2018-08-03T07:06:50.109Z,26.10
2018-08-03T07:07:24.099Z,26.20
2018-08-03T07:07:57.973Z,26.30
2018-08-03T07:08:31.935Z,26.50
2018-08-03T07:09:07.523Z,26.60
2018-08-03T07:09:41.335Z,26.80
2018-08-03T07:10:15.157Z,27.10
2018-08-03T07:10:48.900Z,27.40
2018-08-03T07:11:22.852Z,27.80
2018-08-03T07:11:56.625Z,28.10
2018-08-03T07:12:30.469Z,28.40
2018-08-03T07:13:04.362Z,28.80
2018-08-03T07:13:38.185Z,29.20
2018-08-03T07:14:11.834Z,29.50
2018-08-03T07:14:45.574Z,30.00
2018-08-03T07:15:19.170Z,30.40
2018-08-03T07:15:53.092Z,30.70
2018-08-03T07:16:26.911Z,31.00
2018-08-03T07:17:00.699Z,31.40